Terminal Aerodrome Forecast
Issued by NWS Twin Cities, MN

Home | Current Version | Previous Version | Graphics & Text | Print | Product List | Glossary Off
Versions: 1 2 3 4 5 6 7 8 9 10 11 12 13 14 15 16 17 18 19 20 21

000
FTUS43 KMPX 061414 AAA
TAFSTC
TAF AMD
KSTC 061414Z 0614/0712 36010KT 5SM HZ SCT012 OVC030
      TEMPO 0614/0617 2SM -SHRA BR BKN012 OVC030
     FM061700 34013G20KT P6SM VCSH OVC035
     FM062100 32012G18KT P6SM BKN100
     FM070000 32007KT P6SM SKC=

USA.gov is the U.S. government's official web portal to all federal, state and local government web resources and services.